sensor_id;sensor_type;location;lat;lon;timestamp;P1;durP1;ratioP1;P2;durP2;ratioP2
36303;SDS011;22335;49.800;8.596;2024-03-07T00:03:32;48.47;;;41.03;;
36303;SDS011;22335;49.800;8.596;2024-03-07T00:10:15;47.47;;;41.20;;
36303;SDS011;22335;49.800;8.596;2024-03-07T00:17:01;48.95;;;39.65;;
36303;SDS011;22335;49.800;8.596;2024-03-07T00:23:45;44.95;;;39.92;;
36303;SDS011;22335;49.800;8.596;2024-03-07T00:30:30;47.08;;;38.58;;
36303;SDS011;22335;49.800;8.596;2024-03-07T00:37:16;48.40;;;40.50;;
36303;SDS011;22335;49.800;8.596;2024-03-07T00:44:00;44.20;;;38.60;;
36303;SDS011;22335;49.800;8.596;2024-03-07T00:50:43;48.90;;;41.38;;
36303;SDS011;22335;49.800;8.596;2024-03-07T00:57:28;46.83;;;40.55;;
36303;SDS011;22335;49.800;8.596;2024-03-07T01:04:12;49.92;;;41.78;;
36303;SDS011;22335;49.800;8.596;2024-03-07T01:10:55;49.13;;;41.80;;
36303;SDS011;22335;49.800;8.596;2024-03-07T01:17:40;48.65;;;41.75;;
36303;SDS011;22335;49.800;8.596;2024-03-07T01:24:24;46.58;;;41.35;;
36303;SDS011;22335;49.800;8.596;2024-03-07T01:31:07;50.97;;;42.78;;
36303;SDS011;22335;49.800;8.596;2024-03-07T01:37:52;45.30;;;40.28;;
36303;SDS011;22335;49.800;8.596;2024-03-07T01:44:36;47.67;;;40.80;;
36303;SDS011;22335;49.800;8.596;2024-03-07T01:51:22;45.70;;;40.70;;
36303;SDS011;22335;49.800;8.596;2024-03-07T01:58:07;48.85;;;41.08;;
36303;SDS011;22335;49.800;8.596;2024-03-07T02:04:54;51.30;;;42.83;;
36303;SDS011;22335;49.800;8.596;2024-03-07T02:11:38;48.17;;;42.40;;
36303;SDS011;22335;49.800;8.596;2024-03-07T02:18:22;50.15;;;41.78;;
36303;SDS011;22335;49.800;8.596;2024-03-07T02:25:09;48.58;;;43.22;;
36303;SDS011;22335;49.800;8.596;2024-03-07T02:31:52;51.42;;;42.35;;
36303;SDS011;22335;49.800;8.596;2024-03-07T02:38:36;48.17;;;41.03;;
36303;SDS011;22335;49.800;8.596;2024-03-07T02:45:20;47.13;;;40.53;;
36303;SDS011;22335;49.800;8.596;2024-03-07T02:52:04;46.72;;;41.53;;
36303;SDS011;22335;49.800;8.596;2024-03-07T02:58:49;50.35;;;43.42;;
36303;SDS011;22335;49.800;8.596;2024-03-07T03:05:34;53.13;;;43.08;;
36303;SDS011;22335;49.800;8.596;2024-03-07T03:12:17;65.30;;;47.33;;
36303;SDS011;22335;49.800;8.596;2024-03-07T03:19:02;62.80;;;45.97;;
36303;SDS011;22335;49.800;8.596;2024-03-07T03:25:47;53.20;;;44.08;;
36303;SDS011;22335;49.800;8.596;2024-03-07T03:32:31;52.13;;;42.88;;
36303;SDS011;22335;49.800;8.596;2024-03-07T03:39:15;50.55;;;41.67;;
36303;SDS011;22335;49.800;8.596;2024-03-07T04:01:05;50.67;;;41.13;;
36303;SDS011;22335;49.800;8.596;2024-03-07T04:07:54;47.17;;;40.40;;
36303;SDS011;22335;49.800;8.596;2024-03-07T04:14:39;45.90;;;40.30;;
36303;SDS011;22335;49.800;8.596;2024-03-07T04:21:24;46.45;;;39.60;;
36303;SDS011;22335;49.800;8.596;2024-03-07T04:28:08;44.88;;;39.97;;
36303;SDS011;22335;49.800;8.596;2024-03-07T04:34:51;48.15;;;39.90;;
36303;SDS011;22335;49.800;8.596;2024-03-07T04:41:36;43.80;;;39.13;;
36303;SDS011;22335;49.800;8.596;2024-03-07T04:48:20;43.00;;;38.60;;
36303;SDS011;22335;49.800;8.596;2024-03-07T04:55:04;45.20;;;40.38;;
36303;SDS011;22335;49.800;8.596;2024-03-07T05:01:52;43.95;;;39.08;;
36303;SDS011;22335;49.800;8.596;2024-03-07T05:08:35;46.55;;;39.75;;
36303;SDS011;22335;49.800;8.596;2024-03-07T05:15:19;45.85;;;39.88;;
36303;SDS011;22335;49.800;8.596;2024-03-07T05:22:04;43.42;;;38.95;;
36303;SDS011;22335;49.800;8.596;2024-03-07T05:28:48;45.70;;;40.65;;
36303;SDS011;22335;49.800;8.596;2024-03-07T05:35:33;45.78;;;40.72;;
36303;SDS011;22335;49.800;8.596;2024-03-07T05:42:18;49.28;;;41.60;;
36303;SDS011;22335;49.800;8.596;2024-03-07T05:49:02;45.65;;;40.65;;
36303;SDS011;22335;49.800;8.596;2024-03-07T05:55:45;47.92;;;41.95;;
36303;SDS011;22335;49.800;8.596;2024-03-07T06:02:30;52.00;;;44.45;;
36303;SDS011;22335;49.800;8.596;2024-03-07T06:09:14;52.35;;;44.38;;
36303;SDS011;22335;49.800;8.596;2024-03-07T06:16:02;51.53;;;44.55;;
36303;SDS011;22335;49.800;8.596;2024-03-07T06:22:50;53.10;;;43.65;;
36303;SDS011;22335;49.800;8.596;2024-03-07T06:29:33;46.78;;;41.05;;
36303;SDS011;22335;49.800;8.596;2024-03-07T06:36:17;46.65;;;41.58;;
36303;SDS011;22335;49.800;8.596;2024-03-07T06:43:02;47.00;;;41.60;;
36303;SDS011;22335;49.800;8.596;2024-03-07T06:49:47;44.88;;;40.10;;
36303;SDS011;22335;49.800;8.596;2024-03-07T06:56:31;49.33;;;41.08;;
36303;SDS011;22335;49.800;8.596;2024-03-07T07:03:16;49.38;;;41.63;;
36303;SDS011;22335;49.800;8.596;2024-03-07T07:10:01;49.78;;;40.67;;
36303;SDS011;22335;49.800;8.596;2024-03-07T07:16:45;47.50;;;41.22;;
36303;SDS011;22335;49.800;8.596;2024-03-07T07:23:29;49.65;;;41.95;;
36303;SDS011;22335;49.800;8.596;2024-03-07T07:30:14;44.60;;;39.67;;
36303;SDS011;22335;49.800;8.596;2024-03-07T07:36:59;45.47;;;40.55;;
36303;SDS011;22335;49.800;8.596;2024-03-07T07:43:43;46.38;;;41.33;;
36303;SDS011;22335;49.800;8.596;2024-03-07T07:50:27;46.17;;;41.10;;
36303;SDS011;22335;49.800;8.596;2024-03-07T07:57:12;46.53;;;39.85;;
36303;SDS011;22335;49.800;8.596;2024-03-07T08:03:57;43.95;;;39.15;;
36303;SDS011;22335;49.800;8.596;2024-03-07T08:10:40;43.22;;;38.72;;
36303;SDS011;22335;49.800;8.596;2024-03-07T08:17:27;42.70;;;38.00;;
36303;SDS011;22335;49.800;8.596;2024-03-07T08:24:11;42.25;;;37.85;;
36303;SDS011;22335;49.800;8.596;2024-03-07T08:30:55;40.15;;;35.88;;
36303;SDS011;22335;49.800;8.596;2024-03-07T08:37:40;38.47;;;34.45;;
36303;SDS011;22335;49.800;8.596;2024-03-07T08:44:26;35.88;;;32.45;;
36303;SDS011;22335;49.800;8.596;2024-03-07T08:51:10;35.00;;;31.80;;
36303;SDS011;22335;49.800;8.596;2024-03-07T08:57:54;32.15;;;29.10;;
36303;SDS011;22335;49.800;8.596;2024-03-07T09:04:39;30.85;;;28.10;;
36303;SDS011;22335;49.800;8.596;2024-03-07T09:11:23;31.90;;;28.85;;
36303;SDS011;22335;49.800;8.596;2024-03-07T09:18:07;33.47;;;30.38;;
36303;SDS011;22335;49.800;8.596;2024-03-07T09:24:53;33.20;;;29.90;;
36303;SDS011;22335;49.800;8.596;2024-03-07T09:31:36;34.15;;;30.88;;
36303;SDS011;22335;49.800;8.596;2024-03-07T09:38:21;33.78;;;30.30;;
36303;SDS011;22335;49.800;8.596;2024-03-07T09:45:06;33.78;;;30.58;;
36303;SDS011;22335;49.800;8.596;2024-03-07T09:51:51;34.05;;;30.70;;
36303;SDS011;22335;49.800;8.596;2024-03-07T09:58:37;35.28;;;31.92;;
36303;SDS011;22335;49.800;8.596;2024-03-07T10:05:25;34.10;;;30.75;;
36303;SDS011;22335;49.800;8.596;2024-03-07T10:12:11;34.13;;;30.83;;
36303;SDS011;22335;49.800;8.596;2024-03-07T10:18:56;34.08;;;30.75;;
36303;SDS011;22335;49.800;8.596;2024-03-07T10:25:41;34.38;;;31.05;;
36303;SDS011;22335;49.800;8.596;2024-03-07T10:32:25;34.42;;;30.88;;
36303;SDS011;22335;49.800;8.596;2024-03-07T10:39:08;33.65;;;30.50;;
36303;SDS011;22335;49.800;8.596;2024-03-07T10:45:56;34.60;;;30.35;;
36303;SDS011;22335;49.800;8.596;2024-03-07T10:52:43;34.20;;;30.85;;
36303;SDS011;22335;49.800;8.596;2024-03-07T10:59:37;32.95;;;29.75;;
36303;SDS011;22335;49.800;8.596;2024-03-07T11:06:23;34.92;;;31.33;;
36303;SDS011;22335;49.800;8.596;2024-03-07T11:13:08;33.33;;;30.23;;
36303;SDS011;22335;49.800;8.596;2024-03-07T11:19:54;35.08;;;31.60;;
36303;SDS011;22335;49.800;8.596;2024-03-07T11:26:53;32.20;;;29.17;;
36303;SDS011;22335;49.800;8.596;2024-03-07T11:33:39;34.00;;;30.65;;
36303;SDS011;22335;49.800;8.596;2024-03-07T11:47:36;32.50;;;29.25;;
36303;SDS011;22335;49.800;8.596;2024-03-07T11:54:22;31.52;;;28.38;;
36303;SDS011;22335;49.800;8.596;2024-03-07T12:01:08;32.50;;;29.40;;
36303;SDS011;22335;49.800;8.596;2024-03-07T12:07:57;32.63;;;29.52;;
36303;SDS011;22335;49.800;8.596;2024-03-07T12:14:41;31.80;;;28.77;;
36303;SDS011;22335;49.800;8.596;2024-03-07T12:21:25;29.30;;;26.73;;
36303;SDS011;22335;49.800;8.596;2024-03-07T12:28:11;31.02;;;28.05;;
36303;SDS011;22335;49.800;8.596;2024-03-07T12:34:58;29.52;;;26.75;;
36303;SDS011;22335;49.800;8.596;2024-03-07T12:41:42;29.27;;;26.48;;
36303;SDS011;22335;49.800;8.596;2024-03-07T12:48:29;29.55;;;26.83;;
36303;SDS011;22335;49.800;8.596;2024-03-07T12:55:14;28.70;;;26.23;;
36303;SDS011;22335;49.800;8.596;2024-03-07T13:02:02;27.40;;;25.05;;
36303;SDS011;22335;49.800;8.596;2024-03-07T13:08:49;30.63;;;27.73;;
36303;SDS011;22335;49.800;8.596;2024-03-07T13:15:32;28.23;;;25.83;;
36303;SDS011;22335;49.800;8.596;2024-03-07T13:22:18;27.48;;;25.13;;
36303;SDS011;22335;49.800;8.596;2024-03-07T13:29:03;26.10;;;23.83;;
36303;SDS011;22335;49.800;8.596;2024-03-07T13:35:46;25.85;;;23.58;;
36303;SDS011;22335;49.800;8.596;2024-03-07T13:42:31;27.02;;;24.70;;
36303;SDS011;22335;49.800;8.596;2024-03-07T13:49:16;27.25;;;24.85;;
36303;SDS011;22335;49.800;8.596;2024-03-07T13:56:12;25.67;;;23.55;;
36303;SDS011;22335;49.800;8.596;2024-03-07T14:03:20;26.60;;;24.13;;
36303;SDS011;22335;49.800;8.596;2024-03-07T14:10:44;26.03;;;23.83;;
36303;SDS011;22335;49.800;8.596;2024-03-07T14:18:12;25.17;;;22.98;;
36303;SDS011;22335;49.800;8.596;2024-03-07T14:25:46;25.75;;;23.42;;
36303;SDS011;22335;49.800;8.596;2024-03-07T14:39:29;26.70;;;24.33;;
36303;SDS011;22335;49.800;8.596;2024-03-07T14:46:17;26.38;;;24.05;;
36303;SDS011;22335;49.800;8.596;2024-03-07T14:53:01;25.60;;;23.30;;
36303;SDS011;22335;49.800;8.596;2024-03-07T14:59:46;26.33;;;24.02;;
36303;SDS011;22335;49.800;8.596;2024-03-07T15:06:31;26.13;;;23.83;;
36303;SDS011;22335;49.800;8.596;2024-03-07T15:13:15;24.95;;;22.65;;
36303;SDS011;22335;49.800;8.596;2024-03-07T15:19:58;25.77;;;23.67;;
36303;SDS011;22335;49.800;8.596;2024-03-07T15:26:43;25.00;;;23.00;;
36303;SDS011;22335;49.800;8.596;2024-03-07T15:33:28;24.88;;;22.63;;
36303;SDS011;22335;49.800;8.596;2024-03-07T15:40:12;24.77;;;22.77;;
36303;SDS011;22335;49.800;8.596;2024-03-07T15:46:58;24.92;;;22.83;;
36303;SDS011;22335;49.800;8.596;2024-03-07T15:53:42;24.33;;;22.13;;
36303;SDS011;22335;49.800;8.596;2024-03-07T16:00:26;24.92;;;22.80;;
36303;SDS011;22335;49.800;8.596;2024-03-07T16:07:12;24.73;;;22.65;;
36303;SDS011;22335;49.800;8.596;2024-03-07T16:13:56;24.67;;;22.60;;
36303;SDS011;22335;49.800;8.596;2024-03-07T16:20:39;26.45;;;24.00;;
36303;SDS011;22335;49.800;8.596;2024-03-07T16:27:28;27.10;;;24.67;;
36303;SDS011;22335;49.800;8.596;2024-03-07T16:34:12;26.38;;;24.08;;
36303;SDS011;22335;49.800;8.596;2024-03-07T16:40:55;26.90;;;24.60;;
36303;SDS011;22335;49.800;8.596;2024-03-07T16:47:41;26.48;;;23.98;;
36303;SDS011;22335;49.800;8.596;2024-03-07T16:54:26;31.13;;;27.98;;
36303;SDS011;22335;49.800;8.596;2024-03-07T17:01:10;28.00;;;25.33;;
36303;SDS011;22335;49.800;8.596;2024-03-07T17:07:55;28.38;;;25.67;;
36303;SDS011;22335;49.800;8.596;2024-03-07T17:14:42;27.17;;;24.67;;
36303;SDS011;22335;49.800;8.596;2024-03-07T17:21:25;29.00;;;26.25;;
36303;SDS011;22335;49.800;8.596;2024-03-07T17:28:10;27.63;;;25.02;;
36303;SDS011;22335;49.800;8.596;2024-03-07T17:34:53;28.88;;;26.10;;
36303;SDS011;22335;49.800;8.596;2024-03-07T17:41:38;27.63;;;25.08;;
36303;SDS011;22335;49.800;8.596;2024-03-07T17:48:22;28.80;;;26.20;;
36303;SDS011;22335;49.800;8.596;2024-03-07T17:55:07;31.65;;;28.58;;
36303;SDS011;22335;49.800;8.596;2024-03-07T18:01:50;28.55;;;25.63;;
36303;SDS011;22335;49.800;8.596;2024-03-07T18:08:38;29.50;;;26.73;;
36303;SDS011;22335;49.800;8.596;2024-03-07T18:15:22;28.83;;;26.13;;
36303;SDS011;22335;49.800;8.596;2024-03-07T18:22:08;28.90;;;26.00;;
36303;SDS011;22335;49.800;8.596;2024-03-07T18:28:53;28.13;;;25.58;;
36303;SDS011;22335;49.800;8.596;2024-03-07T18:35:36;28.13;;;25.52;;
36303;SDS011;22335;49.800;8.596;2024-03-07T18:42:23;28.27;;;25.70;;
36303;SDS011;22335;49.800;8.596;2024-03-07T18:49:11;28.92;;;26.33;;
36303;SDS011;22335;49.800;8.596;2024-03-07T18:55:55;28.17;;;25.52;;
36303;SDS011;22335;49.800;8.596;2024-03-07T19:02:38;28.45;;;25.92;;
36303;SDS011;22335;49.800;8.596;2024-03-07T19:09:24;29.88;;;27.05;;
36303;SDS011;22335;49.800;8.596;2024-03-07T19:16:13;29.17;;;26.40;;
36303;SDS011;22335;49.800;8.596;2024-03-07T19:22:57;29.90;;;27.13;;
36303;SDS011;22335;49.800;8.596;2024-03-07T19:29:41;29.20;;;26.50;;
36303;SDS011;22335;49.800;8.596;2024-03-07T19:36:30;29.33;;;26.63;;
36303;SDS011;22335;49.800;8.596;2024-03-07T19:43:14;28.50;;;26.00;;
36303;SDS011;22335;49.800;8.596;2024-03-07T19:50:02;29.63;;;26.85;;
36303;SDS011;22335;49.800;8.596;2024-03-07T19:56:46;29.40;;;26.80;;
36303;SDS011;22335;49.800;8.596;2024-03-07T20:03:30;30.02;;;26.88;;
36303;SDS011;22335;49.800;8.596;2024-03-07T20:10:16;30.60;;;27.75;;
36303;SDS011;22335;49.800;8.596;2024-03-07T20:17:00;30.02;;;27.13;;
36303;SDS011;22335;49.800;8.596;2024-03-07T20:23:44;29.38;;;26.83;;
36303;SDS011;22335;49.800;8.596;2024-03-07T20:30:28;30.67;;;27.75;;
36303;SDS011;22335;49.800;8.596;2024-03-07T20:37:15;30.23;;;27.33;;
36303;SDS011;22335;49.800;8.596;2024-03-07T20:43:59;29.65;;;26.83;;
36303;SDS011;22335;49.800;8.596;2024-03-07T20:50:43;30.23;;;27.35;;
36303;SDS011;22335;49.800;8.596;2024-03-07T20:57:27;29.98;;;27.17;;
36303;SDS011;22335;49.800;8.596;2024-03-07T21:04:11;30.73;;;27.73;;
36303;SDS011;22335;49.800;8.596;2024-03-07T21:10:56;28.65;;;26.08;;
36303;SDS011;22335;49.800;8.596;2024-03-07T21:17:42;30.08;;;27.33;;
36303;SDS011;22335;49.800;8.596;2024-03-07T21:24:25;29.17;;;26.48;;
36303;SDS011;22335;49.800;8.596;2024-03-07T21:31:10;30.40;;;27.60;;
36303;SDS011;22335;49.800;8.596;2024-03-07T21:37:57;30.15;;;27.35;;
36303;SDS011;22335;49.800;8.596;2024-03-07T21:44:40;31.33;;;28.23;;
36303;SDS011;22335;49.800;8.596;2024-03-07T21:51:25;30.30;;;27.33;;
36303;SDS011;22335;49.800;8.596;2024-03-07T21:58:08;30.95;;;27.80;;
36303;SDS011;22335;49.800;8.596;2024-03-07T22:04:52;31.55;;;28.60;;
36303;SDS011;22335;49.800;8.596;2024-03-07T22:11:44;30.92;;;27.92;;
36303;SDS011;22335;49.800;8.596;2024-03-07T22:18:28;30.27;;;27.48;;
36303;SDS011;22335;49.800;8.596;2024-03-07T22:25:11;32.15;;;28.95;;
36303;SDS011;22335;49.800;8.596;2024-03-07T22:31:57;30.92;;;27.92;;
36303;SDS011;22335;49.800;8.596;2024-03-07T22:38:40;32.15;;;29.02;;
36303;SDS011;22335;49.800;8.596;2024-03-07T22:45:24;32.28;;;28.88;;
36303;SDS011;22335;49.800;8.596;2024-03-07T22:52:09;31.42;;;28.40;;
36303;SDS011;22335;49.800;8.596;2024-03-07T22:58:52;33.72;;;30.40;;
36303;SDS011;22335;49.800;8.596;2024-03-07T23:05:37;33.75;;;30.45;;
36303;SDS011;22335;49.800;8.596;2024-03-07T23:12:21;33.92;;;30.52;;
36303;SDS011;22335;49.800;8.596;2024-03-07T23:19:07;33.13;;;30.08;;
36303;SDS011;22335;49.800;8.596;2024-03-07T23:25:53;34.63;;;31.35;;
36303;SDS011;22335;49.800;8.596;2024-03-07T23:32:38;33.90;;;30.65;;
36303;SDS011;22335;49.800;8.596;2024-03-07T23:39:21;34.22;;;31.02;;
36303;SDS011;22335;49.800;8.596;2024-03-07T23:46:06;33.03;;;29.92;;
36303;SDS011;22335;49.800;8.596;2024-03-07T23:52:50;36.17;;;32.67;;
36303;SDS011;22335;49.800;8.596;2024-03-07T23:59:36;38.70;;;34.60;;
